Главная страница
METAR-TAF:

METAR-TAF

Аэропорты :

Сен-Дени, Реюньон

широта: 20-53S, долгота: 055-31E, высота над уровнем моря: 21 м

Текущие метеонаблюдения

Эта сводка был подготовлена 26 минут назад, в 20:30 UTC
Ветер 11 Узел от восточно-юго-восточный
Температура 26°C
Влажность 70%
Давление 1018 hPa
Видимость 10 км и более
Нет облачности ниже 1500 м, и нет кучево-дождевой облачности

METAR: FMEE 122030Z AUTO 11011KT CAVOK 26/20 Q1018 TEMPO 4000 SHRA

Время: 00:56 (20:56 UTC)

Прогноз

Эта сводка был подготовлена 3 часа и 56 минут назад, в 17:00 UTC
Прогноз действительный с 12-го 18 UTC до 13-го 24 UTC
Ветер 10 Узел от восточно-юго-восточный
Видимость 10 км и более
Отдельные облака на высоте 2500 фута
Вероятность 40% :
временами
С 12-го 18 UTC до 12-го 24 UTC
Видимость: 4000 м
ливневые дожди
временами
С 13-го 06 UTC до 13-го 14 UTC
Ветер 15 Узел от восточно-северо-восточный с порывами до 25 Узел

TAF: FMEE 121700Z 1218/1324 12010KT 9999 SCT025 PROB40 TEMPO 1218/1224 4000 SHRA TEMPO 1306/1314 06015G25KT

Метеонаблюдения и прогнозы для более 4000 аэропортов (сводки METAR и TAF).

Имеющиеся станции представлены на карте желтыми и красными точками.

Чтобы увидеть название станции, наведите на нее мышь.

Затем щелкните, чтобы увидеть метеонаблюдения и метеопрогнозы.

Управление картой: чтобы увеличить масштаб, щелкните зеленые кнопки с черным крестиком; чтобы уменьшить масштаб, щелкните зеленую кнопку с тире; для просмотра соседних карт щелкайте зеленые стрелки.


METAR-TAF: